Time;durP1;ratioP1;P1;durP2;ratioP2;P2;SDS_P1;SDS_P2;PMS_P1;PMS_P2;Temp;Humidity;BMP_temperature;BMP_pressure;BME280_temperature;BME280_humidity;BME280_pressure;Samples;Min_cycle;Max_cycle;Signal;HPM_P1;HPM_P2
2022/05/07 00:01:05;;;;;;;12.32;3.90;;;;;;;9.86;34.48;100366.34;5076263;27;20584;-67
2022/05/07 00:03:30;;;;;;;8.45;4.38;;;;;;;9.83;35.28;100370.03;5039228;28;20059;-66
2022/05/07 00:05:55;;;;;;;10.60;4.95;;;;;;;9.83;34.76;100370.03;5076764;27;20085;-65
2022/05/07 00:08:19;;;;;;;7.72;3.83;;;;;;;9.87;35.42;100368.06;5094181;27;20436;-64
2022/05/07 00:10:45;;;;;;;6.63;3.75;;;;;;;9.90;34.80;100361.72;5077700;28;20151;-64
2022/05/07 00:13:10;;;;;;;6.80;4.20;;;;;;;10.04;34.84;100362.66;5081164;27;20043;-62
2022/05/07 00:15:35;;;;;;;8.38;4.57;;;;;;;9.96;35.45;100364.00;5061973;28;20035;-64
2022/05/07 00:18:04;;;;;;;6.15;3.90;;;;;;;9.90;34.99;100369.72;5097036;27;20126;-64
2022/05/07 00:20:30;;;;;;;7.07;3.78;;;;;;;9.89;34.94;100368.84;5060845;28;20038;-69
2022/05/07 00:22:55;;;;;;;7.88;4.10;;;;;;;9.94;34.64;100365.91;5073706;28;20047;-62
2022/05/07 00:25:20;;;;;;;8.45;4.53;;;;;;;9.94;34.62;100363.25;5094747;28;20042;-62
2022/05/07 00:27:45;;;;;;;7.90;4.63;;;;;;;9.94;35.21;100371.22;5076010;28;20127;-63
2022/05/07 00:30:10;;;;;;;8.85;4.13;;;;;;;9.85;34.85;100369.97;5075483;28;20076;-71
2022/05/07 00:32:35;;;;;;;10.25;3.90;;;;;;;9.83;35.20;100366.50;5077041;28;20042;-64
2022/05/07 00:35:00;;;;;;;7.85;4.70;;;;;;;9.86;35.04;100373.47;5059363;28;20044;-67
2022/05/07 00:37:26;;;;;;;14.70;4.50;;;;;;;9.85;35.10;100367.28;5060990;28;20039;-66
2022/05/07 00:39:51;;;;;;;6.97;4.05;;;;;;;9.84;35.08;100373.56;5077317;28;20046;-63
2022/05/07 00:42:17;;;;;;;5.78;3.75;;;;;;;9.87;35.35;100380.53;5095788;28;20047;-63
2022/05/07 00:44:42;;;;;;;8.10;3.90;;;;;;;9.88;35.44;100376.91;5095899;28;20487;-63
2022/05/07 00:47:12;;;;;;;11.35;5.05;;;;;;;9.87;35.57;100370.75;5059465;28;20406;-63
2022/05/07 00:49:36;;;;;;;11.13;4.20;;;;;;;9.84;35.69;100369.09;5073696;28;20398;-62
2022/05/07 00:52:01;;;;;;;9.57;3.85;;;;;;;9.87;35.50;100368.06;5095867;28;20065;-64
2022/05/07 00:54:26;;;;;;;4.13;3.38;;;;;;;9.77;36.09;100364.22;5077738;28;20091;-62
2022/05/07 00:56:51;;;;;;;8.82;4.40;;;;;;;9.86;36.13;100373.47;5064589;28;20058;-64
2022/05/07 00:59:17;;;;;;;8.25;4.13;;;;;;;9.86;35.88;100373.47;5074024;28;20071;-64
2022/05/07 01:01:42;;;;;;;9.73;4.90;;;;;;;9.82;36.18;100378.97;5058399;28;20433;-63
2022/05/07 01:04:07;;;;;;;7.85;4.47;;;;;;;9.90;35.65;100377.69;5075310;28;20410;-64
2022/05/07 01:06:34;;;;;;;8.60;4.07;;;;;;;9.96;35.55;100374.66;5076838;27;20050;-69
2022/05/07 01:09:00;;;;;;;9.15;3.80;;;;;;;9.98;34.91;100375.44;5082159;27;20055;-66
2022/05/07 01:11:28;;;;;;;6.53;3.92;;;;;;;9.97;35.40;100377.25;5082651;27;20497;-69
2022/05/07 01:13:56;;;;;;;7.53;4.30;;;;;;;9.97;35.19;100371.91;5065152;27;20043;-69
2022/05/07 01:16:24;;;;;;;7.55;4.28;;;;;;;9.93;35.58;100365.03;5081695;27;20043;-70
2022/05/07 01:18:48;;;;;;;8.27;3.85;;;;;;;9.88;35.65;100374.25;5100315;27;20074;-70
2022/05/07 01:21:15;;;;;;;6.32;3.70;;;;;;;9.92;35.34;100375.81;5065092;27;20058;-72
2022/05/07 01:23:43;;;;;;;8.80;4.43;;;;;;;9.93;35.76;100369.53;5100141;27;20401;-68
2022/05/07 01:26:09;;;;;;;7.50;4.22;;;;;;;9.87;35.79;100370.75;5080507;27;20448;-72
2022/05/07 01:28:35;;;;;;;8.30;4.97;;;;;;;9.92;36.05;100368.69;5080007;27;20075;-68
2022/05/07 01:31:01;;;;;;;7.68;5.15;;;;;;;9.89;36.10;100368.84;5078294;27;20051;-68
2022/05/07 01:33:25;;;;;;;10.20;4.95;;;;;;;9.83;36.05;100374.50;5078642;27;20049;-69
2022/05/07 01:35:51;;;;;;;9.65;5.85;;;;;;;9.74;36.55;100364.38;5058577;27;20066;-67
2022/05/07 01:38:16;;;;;;;10.07;4.88;;;;;;;9.80;36.42;100367.56;5078567;27;20604;-67
2022/05/07 01:40:40;;;;;;;9.32;4.43;;;;;;;9.69;36.00;100366.47;5079006;27;20826;-68
2022/05/07 01:43:05;;;;;;;6.75;3.90;;;;;;;9.77;36.12;100370.41;5097253;27;20620;-67
2022/05/07 01:45:30;;;;;;;11.90;4.45;;;;;;;9.79;35.80;100367.66;5044684;27;20043;-66
2022/05/07 01:48:11;;;;;;;9.88;4.68;;;;;;;9.78;35.73;100361.47;5078833;27;20050;-65
2022/05/07 01:50:49;;;;;;;9.60;4.97;;;;;;;9.80;36.16;100370.25;5040845;27;20085;-67
2022/05/07 01:53:22;;;;;;;17.63;6.18;;;;;;;9.82;36.09;100368.31;5045708;27;20045;-67
2022/05/07 01:55:48;;;;;;;9.57;4.40;;;;;;;9.86;36.05;100373.47;5061129;27;20476;-65
2022/05/07 01:58:16;;;;;;;8.73;4.15;;;;;;;9.68;36.43;100367.41;5078624;27;20070;-68
2022/05/07 02:00:41;;;;;;;12.02;5.15;;;;;;;9.71;36.01;100362.75;5078527;27;20447;-68
2022/05/07 02:03:06;;;;;;;6.40;3.58;;;;;;;9.85;35.81;100372.63;5079283;27;20447;-69
2022/05/07 02:05:31;;;;;;;8.82;4.22;;;;;;;9.80;35.89;100369.38;5097246;27;20097;-70
2022/05/07 02:07:56;;;;;;;14.98;5.05;;;;;;;9.81;36.33;100365.78;5079680;27;20059;-68
2022/05/07 02:10:21;;;;;;;10.07;4.75;;;;;;;9.68;36.64;100362.09;5079994;27;20065;-68
2022/05/07 02:12:47;;;;;;;11.07;4.38;;;;;;;9.70;36.08;100368.19;5079168;27;20074;-68
2022/05/07 02:15:12;;;;;;;7.72;5.25;;;;;;;9.65;36.39;100371.09;5078780;27;20039;-68
2022/05/07 02:17:37;;;;;;;10.60;4.45;;;;;;;9.68;36.32;100372.72;5078409;27;20092;-69
2022/05/07 02:20:03;;;;;;;10.02;4.90;;;;;;;9.73;36.54;100375.97;5096018;27;20031;-68
2022/05/07 02:22:29;;;;;;;8.73;5.07;;;;;;;9.70;36.41;100374.38;5096907;27;20535;-68
2022/05/07 02:24:53;;;;;;;8.15;4.25;;;;;;;9.76;36.21;100376.66;5079284;27;20081;-68
2022/05/07 02:27:21;;;;;;;9.00;4.40;;;;;;;9.79;36.17;100373.84;5079011;27;20038;-68
2022/05/07 02:29:46;;;;;;;7.47;4.15;;;;;;;9.72;36.23;100375.13;5062282;27;20502;-66
2022/05/07 02:32:13;;;;;;;6.25;4.05;;;;;;;9.77;36.66;100377.53;5097566;27;20509;-67
2022/05/07 02:34:42;;;;;;;11.90;5.28;;;;;;;9.79;35.88;100370.31;5062141;27;20039;-67
2022/05/07 02:37:14;;;;;;;9.63;3.93;;;;;;;9.79;36.03;100376.50;5079319;27;20051;-67
2022/05/07 02:39:42;;;;;;;8.73;4.35;;;;;;;9.87;35.93;100377.88;5079512;27;20035;-63
2022/05/07 02:44:50;;;;;;;8.38;4.60;;;;;;;9.98;36.26;100378.97;5078932;27;20047;-64
2022/05/07 02:47:15;;;;;;;8.88;5.25;;;;;;;10.00;35.96;100384.22;5077684;27;20054;-65
2022/05/07 02:49:40;;;;;;;6.85;4.22;;;;;;;10.05;36.10;100380.31;5061420;27;20079;-63
2022/05/07 02:52:07;;;;;;;8.43;4.78;;;;;;;10.08;35.95;100385.47;5078482;27;20523;-65
2022/05/07 02:54:33;;;;;;;11.48;4.25;;;;;;;10.14;35.67;100381.63;5078729;27;20429;-64
2022/05/07 02:56:58;;;;;;;6.35;4.13;;;;;;;10.08;36.04;100385.47;5095376;27;20422;-63
2022/05/07 02:59:24;;;;;;;7.15;4.43;;;;;;;10.09;35.82;100389.88;5095367;27;20038;-63
2022/05/07 03:01:49;;;;;;;13.48;5.03;;;;;;;10.06;35.58;100387.38;5095248;27;20066;-63
2022/05/07 03:04:14;;;;;;;10.15;4.55;;;;;;;10.12;35.78;100391.50;5096288;27;20070;-62
2022/05/07 03:06:39;;;;;;;8.30;5.03;;;;;;;10.14;35.90;100390.47;5061460;27;20042;-64
2022/05/07 03:09:04;;;;;;;9.68;4.88;;;;;;;10.22;35.63;100389.19;5077799;27;20460;-63
2022/05/07 03:11:33;;;;;;;8.80;5.03;;;;;;;10.19;35.43;100393.75;5060995;27;20195;-62
2022/05/07 03:14:03;;;;;;;9.55;4.47;;;;;;;10.25;36.00;100391.69;5077922;27;20050;-65
2022/05/07 03:16:28;;;;;;;8.15;4.15;;;;;;;10.25;35.58;100386.34;5061161;27;20038;-63
2022/05/07 03:18:53;;;;;;;8.82;5.20;;;;;;;10.29;35.75;100379.88;5061472;27;20042;-64
2022/05/07 03:21:20;;;;;;;11.95;4.28;;;;;;;10.36;35.64;100389.25;5078238;27;20043;-64
2022/05/07 03:23:46;;;;;;;7.50;4.70;;;;;;;10.51;35.32;100377.66;5096346;27;20051;-64
2022/05/07 03:26:12;;;;;;;10.88;4.78;;;;;;;10.53;34.82;100391.78;5060748;27;20035;-64
2022/05/07 03:28:37;;;;;;;7.45;3.83;;;;;;;10.53;35.02;100383.78;5095977;27;20053;-64
2022/05/07 03:31:01;;;;;;;9.48;4.65;;;;;;;10.57;34.78;100387.13;5076734;27;20043;-64
2022/05/07 03:33:26;;;;;;;9.32;4.03;;;;;;;10.64;34.94;100391.13;5077993;27;20046;-64
2022/05/07 03:35:51;;;;;;;8.02;4.20;;;;;;;10.82;34.66;100396.22;5096219;27;20125;-64
2022/05/07 03:38:16;;;;;;;8.30;4.63;;;;;;;10.91;34.61;100392.16;5060634;27;20413;-64
2022/05/07 03:40:59;;;;;;;7.13;4.32;;;;;;;10.95;34.58;100396.31;5095942;27;20118;-64
2022/05/07 03:43:29;;;;;;;11.90;4.43;;;;;;;11.05;34.25;100389.50;5077499;27;20050;-63
2022/05/07 03:45:54;;;;;;;11.00;4.60;;;;;;;11.19;34.27;100388.63;5077712;27;20043;-63
2022/05/07 03:48:19;;;;;;;7.93;4.05;;;;;;;11.32;34.14;100391.38;5078039;27;20548;-64
2022/05/07 03:50:49;;;;;;;11.00;5.35;;;;;;;11.44;33.56;100386.13;5077798;27;20039;-64
2022/05/07 03:53:32;;;;;;;11.63;4.38;;;;;;;11.46;33.75;100394.06;5095954;27;20054;-64
2022/05/07 03:56:08;;;;;;;8.93;4.78;;;;;;;11.45;33.80;100397.69;5095708;27;20091;-65
2022/05/07 03:58:36;;;;;;;7.70;4.20;;;;;;;11.35;33.56;100397.41;5077290;28;20075;-67
2022/05/07 04:01:03;;;;;;;7.90;3.80;;;;;;;11.29;33.48;100395.97;5077985;27;20038;-63
2022/05/07 04:03:30;;;;;;;10.75;5.15;;;;;;;11.22;34.10;100391.97;5077385;27;20047;-64
2022/05/07 04:05:56;;;;;;;10.07;5.15;;;;;;;11.13;34.18;100389.88;5060691;28;20062;-63
2022/05/07 04:08:23;;;;;;;13.95;5.25;;;;;;;11.22;34.56;100394.63;5080947;27;20498;-64
2022/05/07 04:10:49;;;;;;;9.82;4.30;;;;;;;11.50;33.69;100401.78;5080642;28;20043;-63
2022/05/07 04:13:18;;;;;;;8.05;5.10;;;;;;;11.61;33.46;100398.44;5076992;27;20053;-63
2022/05/07 04:15:46;;;;;;;6.25;3.75;;;;;;;11.70;33.38;100387.16;5077058;27;20039;-63
2022/05/07 04:18:12;;;;;;;9.40;4.93;;;;;;;11.74;33.11;100385.97;5076959;27;20070;-63
2022/05/07 04:20:39;;;;;;;7.85;4.68;;;;;;;11.83;33.42;100377.44;5060505;28;20039;-63
2022/05/07 04:23:08;;;;;;;7.60;4.07;;;;;;;11.85;33.44;100386.19;5060126;28;20049;-64
2022/05/07 04:25:33;;;;;;;7.20;4.18;;;;;;;12.01;33.48;100383.38;5074949;28;20035;-63
2022/05/07 04:27:59;;;;;;;7.82;4.50;;;;;;;12.30;32.95;100381.47;5077532;28;20047;-64
2022/05/07 04:30:25;;;;;;;7.70;4.82;;;;;;;12.72;31.83;100388.41;5060753;28;20039;-64
2022/05/07 04:32:50;;;;;;;7.63;4.40;;;;;;;13.07;31.38;100384.13;5079354;28;20074;-64
2022/05/07 04:35:16;;;;;;;6.90;4.75;;;;;;;13.31;31.25;100373.56;5079341;28;20096;-63
2022/05/07 04:37:40;;;;;;;6.13;4.35;;;;;;;13.64;31.34;100382.81;5061879;28;20050;-63
2022/05/07 04:40:07;;;;;;;8.63;5.13;;;;;;;14.07;29.85;100378.69;5077591;28;20386;-64
2022/05/07 04:42:34;;;;;;;8.80;4.80;;;;;;;14.35;29.73;100379.28;5064332;27;20049;-65
2022/05/07 04:45:04;;;;;;;7.65;4.20;;;;;;;14.57;29.39;100383.91;5064637;27;20401;-64
2022/05/07 04:47:49;;;;;;;10.55;5.82;;;;;;;14.59;29.46;100374.78;5099548;27;20058;-64
2022/05/07 04:50:22;;;;;;;6.65;4.32;;;;;;;14.79;29.08;100374.09;5081366;27;20071;-62
2022/05/07 04:52:52;;;;;;;7.20;4.30;;;;;;;14.86;28.96;100374.50;5064228;27;20047;-61
2022/05/07 04:55:18;;;;;;;15.05;5.25;;;;;;;15.06;29.03;100365.75;5082360;27;20447;-63
2022/05/07 04:57:48;;;;;;;9.63;4.68;;;;;;;15.49;28.66;100368.53;5080938;27;20059;-63
2022/05/07 05:00:15;;;;;;;9.82;4.85;;;;;;;15.84;28.16;100367.56;5080770;27;20121;-61
2022/05/07 05:02:52;;;;;;;6.03;4.03;;;;;;;16.16;27.27;100363.06;5063689;27;20043;-62
2022/05/07 05:05:22;;;;;;;10.68;5.25;;;;;;;16.55;26.94;100360.72;5080680;27;20050;-62
2022/05/07 05:07:56;;;;;;;9.13;4.28;;;;;;;16.93;26.62;100354.78;5080825;27;20065;-61
2022/05/07 05:10:22;;;;;;;6.63;4.50;;;;;;;17.26;26.34;100354.53;5080755;27;20452;-62
2022/05/07 05:12:48;;;;;;;7.55;4.10;;;;;;;17.49;26.13;100357.03;5081050;27;20066;-61
2022/05/07 05:15:14;;;;;;;10.43;5.10;;;;;;;17.75;25.61;100360.97;5080680;27;20104;-61
2022/05/07 05:17:48;;;;;;;7.60;4.77;;;;;;;18.07;25.51;100356.19;5082527;27;20088;-63
2022/05/07 05:20:14;;;;;;;9.10;4.97;;;;;;;18.17;24.89;100369.72;5064970;27;20039;-61
2022/05/07 05:22:49;;;;;;;9.60;5.10;;;;;;;18.25;24.67;100361.75;5081412;27;20111;-63
2022/05/07 05:25:19;;;;;;;12.38;4.60;;;;;;;18.65;24.50;100368.88;5080873;27;20125;-62
2022/05/07 05:27:46;;;;;;;10.38;4.80;;;;;;;19.19;23.91;100360.94;5080618;27;20050;-61
2022/05/07 05:30:12;;;;;;;14.73;5.28;;;;;;;19.50;23.15;100364.28;5063118;27;20043;-62
2022/05/07 05:32:37;;;;;;;11.52;4.75;;;;;;;19.81;22.92;100361.28;5080262;27;20043;-62
2022/05/07 05:35:03;;;;;;;6.30;4.43;;;;;;;20.09;22.69;100371.06;5080399;27;20051;-62
2022/05/07 05:37:36;;;;;;;9.35;4.60;;;;;;;19.84;22.91;100355.56;5079953;27;20042;-62
2022/05/07 05:40:01;;;;;;;12.10;4.57;;;;;;;19.48;23.29;100357.28;5080512;27;20046;-62
2022/05/07 05:42:31;;;;;;;9.45;4.75;;;;;;;19.45;22.82;100363.00;5081289;27;20043;-61
2022/05/07 05:44:55;;;;;;;9.55;4.57;;;;;;;19.80;22.83;100359.56;5080448;27;20091;-61
2022/05/07 05:47:23;;;;;;;7.88;4.53;;;;;;;20.08;22.63;100363.13;5065203;27;20046;-63
2022/05/07 05:49:49;;;;;;;5.40;3.70;;;;;;;20.15;22.08;100367.75;5081447;27;20115;-63
2022/05/07 05:52:20;;;;;;;6.22;4.30;;;;;;;20.38;21.71;100353.78;5079534;28;20095;-62
2022/05/07 05:54:45;;;;;;;10.60;5.18;;;;;;;21.07;21.34;100358.41;5080435;27;20058;-62
2022/05/07 05:57:10;;;;;;;5.57;4.20;;;;;;;21.41;20.60;100363.91;5058832;28;20043;-63
2022/05/07 05:59:39;;;;;;;6.40;4.60;;;;;;;21.99;20.31;100364.84;5067908;28;20048;-62
2022/05/07 06:02:03;;;;;;;17.10;4.97;;;;;;;22.58;19.47;100362.88;5040091;28;20075;-63
2022/05/07 06:04:36;;;;;;;8.80;4.50;;;;;;;22.94;19.12;100381.59;5038753;28;20040;-64
2022/05/07 06:07:08;;;;;;;9.27;4.57;;;;;;;22.68;19.31;100368.19;5039217;28;20059;-67
2022/05/07 06:09:35;;;;;;;11.13;5.55;;;;;;;22.50;19.73;100367.47;5021633;28;20044;-63
2022/05/07 06:12:00;;;;;;;12.20;4.72;;;;;;;22.88;19.20;100369.56;5055231;28;20056;-64
2022/05/07 06:14:28;;;;;;;11.13;4.43;;;;;;;23.42;18.86;100367.91;5038028;28;20044;-63
2022/05/07 06:16:57;;;;;;;6.93;4.07;;;;;;;24.06;17.98;100374.13;5038121;28;20055;-64
2022/05/07 06:19:21;;;;;;;8.27;4.60;;;;;;;24.83;17.24;100371.41;5037913;28;20032;-63
2022/05/07 06:21:51;;;;;;;4.63;3.78;;;;;;;25.27;16.73;100375.09;5037841;28;20098;-64
2022/05/07 06:29:45;;;;;;;8.25;4.55;;;;;;;24.90;16.76;100366.91;5062331;27;20042;-64
2022/05/07 06:32:12;;;;;;;10.23;4.50;;;;;;;25.01;16.93;100368.38;5062095;27;20043;-64
2022/05/07 06:34:37;;;;;;;6.90;4.50;;;;;;;24.99;16.87;100359.53;5097791;27;20045;-64
2022/05/07 06:37:02;;;;;;;6.22;4.35;;;;;;;24.61;17.43;100362.19;5080009;27;20047;-63
2022/05/07 06:39:29;;;;;;;13.40;4.65;;;;;;;25.14;17.10;100369.44;5063953;27;20058;-64
2022/05/07 06:41:55;;;;;;;6.70;4.25;;;;;;;26.09;16.67;100368.66;5045570;27;20105;-63
2022/05/07 06:44:19;;;;;;;9.13;4.70;;;;;;;26.76;15.73;100372.75;5079408;27;20071;-64
2022/05/07 06:46:45;;;;;;;5.38;4.00;;;;;;;27.09;15.40;100385.91;5062478;27;20045;-63
2022/05/07 06:49:11;;;;;;;6.18;4.25;;;;;;;27.18;15.24;100383.88;5097347;27;20122;-63
2022/05/07 06:51:46;;;;;;;9.98;4.20;;;;;;;26.47;15.73;100372.91;5078983;27;20038;-64
2022/05/07 06:54:11;;;;;;;6.32;4.40;;;;;;;26.18;15.95;100375.72;5097379;27;20118;-64
2022/05/07 06:56:35;;;;;;;9.25;4.50;;;;;;;25.97;16.01;100368.31;5061663;27;20070;-63
2022/05/07 06:59:01;;;;;;;7.90;4.25;;;;;;;26.05;16.18;100373.69;5097105;27;20039;-62
2022/05/07 07:01:26;;;;;;;8.40;4.82;;;;;;;26.13;15.92;100369.97;5096628;27;20466;-64
2022/05/07 07:03:50;;;;;;;8.18;4.10;;;;;;;26.59;15.58;100370.50;5078018;27;20387;-63
2022/05/07 07:06:17;;;;;;;6.07;4.75;;;;;;;26.72;15.36;100365.16;5096814;27;20039;-62
2022/05/07 07:08:42;;;;;;;8.32;4.22;;;;;;;26.19;15.55;100363.72;5078388;27;20046;-63
2022/05/07 07:11:08;;;;;;;6.40;4.20;;;;;;;26.30;15.92;100361.34;5096696;27;20042;-62
2022/05/07 07:13:32;;;;;;;9.68;4.18;;;;;;;27.25;15.28;100357.41;5097009;27;20043;-62
2022/05/07 07:15:57;;;;;;;7.97;4.90;;;;;;;28.33;14.29;100364.94;5096332;27;20095;-63
2022/05/07 07:18:22;;;;;;;7.72;4.53;;;;;;;29.68;13.25;100353.53;5096637;27;20043;-62
2022/05/07 07:20:49;;;;;;;7.85;5.13;;;;;;;30.80;12.54;100363.97;5096493;27;20043;-61
2022/05/07 07:23:13;;;;;;;6.85;4.63;;;;;;;30.87;11.97;100354.56;5097020;27;20039;-62
2022/05/07 07:25:40;;;;;;;8.05;4.38;;;;;;;31.68;12.11;100362.72;5096763;27;20108;-61
2022/05/07 07:28:05;;;;;;;6.43;4.55;;;;;;;32.65;11.70;100358.00;5096766;27;20046;-62
2022/05/07 07:30:30;;;;;;;10.05;4.63;;;;;;;33.38;11.08;100352.16;5096186;27;20382;-61
2022/05/07 07:32:55;;;;;;;9.15;4.53;;;;;;;34.34;10.61;100344.22;5078004;27;20454;-62
2022/05/07 07:35:20;;;;;;;8.25;5.05;;;;;;;35.16;10.29;100348.19;5096634;27;20042;-63
2022/05/07 07:37:45;;;;;;;5.97;5.25;;;;;;;35.92;10.03;100349.28;5096467;27;20054;-62
2022/05/07 07:40:11;;;;;;;10.93;4.88;;;;;;;36.21;9.84;100361.06;5061143;27;20450;-64
2022/05/07 07:42:37;;;;;;;8.63;4.85;;;;;;;34.60;9.39;100351.91;5079991;27;20035;-62
2022/05/07 07:47:57;;;;;;;4.90;4.33;;;;;;;32.04;10.46;100342.56;5097555;27;20115;-62
2022/05/07 07:50:31;;;;;;;5.82;4.88;;;;;;;31.02;11.17;100340.47;5101712;27;20866;-62
2022/05/07 07:52:58;;;;;;;6.13;4.55;;;;;;;31.08;11.40;100345.06;5079970;27;20572;-62
2022/05/07 07:55:22;;;;;;;5.93;4.63;;;;;;;31.66;10.92;100337.31;5096388;27;20497;-64
2022/05/07 07:57:47;;;;;;;4.82;4.28;;;;;;;30.30;11.24;100330.81;5096274;27;20497;-63
2022/05/07 08:00:12;;;;;;;7.15;4.82;;;;;;;29.51;11.15;100333.91;5095744;27;20117;-63
2022/05/07 08:02:55;;;;;;;6.72;4.32;;;;;;;29.38;11.56;100315.56;5097206;27;20070;-62
2022/05/07 08:05:31;;;;;;;12.65;4.43;;;;;;;30.41;11.36;100330.13;5100448;27;20045;-61
2022/05/07 08:13:24;;;;;;;4.18;3.35;;;;;;;30.41;11.16;100323.75;5095651;27;20509;-62
2022/05/07 08:15:49;;;;;;;8.68;4.80;;;;;;;29.10;11.62;100321.31;5076780;28;20424;-63
2022/05/07 08:18:15;;;;;;;5.82;4.50;;;;;;;29.05;11.34;100312.84;5060931;28;20039;-61
2022/05/07 08:20:43;;;;;;;4.72;4.22;;;;;;;29.14;11.43;100306.06;5096115;27;20095;-62
2022/05/07 08:23:09;;;;;;;11.07;4.57;;;;;;;29.21;11.48;100303.31;5095554;28;20509;-62
2022/05/07 08:25:35;;;;;;;4.60;3.45;;;;;;;30.05;10.77;100313.41;5095936;28;20059;-61
2022/05/07 08:28:00;;;;;;;8.82;3.92;;;;;;;30.19;10.79;100306.78;5095980;28;20042;-62
2022/05/07 08:30:25;;;;;;;5.53;4.22;;;;;;;30.14;10.59;100303.81;5095974;28;20050;-61
2022/05/07 08:32:51;;;;;;;6.95;3.95;;;;;;;29.74;11.03;100304.03;5095383;28;20051;-62
2022/05/07 08:35:16;;;;;;;7.15;4.28;;;;;;;29.51;11.22;100306.44;5077273;28;20386;-63
2022/05/07 08:37:40;;;;;;;5.07;4.15;;;;;;;29.96;11.17;100294.41;5095947;28;20409;-62
2022/05/07 08:40:06;;;;;;;9.10;4.50;;;;;;;30.10;11.23;100292.44;5095609;28;20521;-62
2022/05/07 08:42:31;;;;;;;5.55;4.18;;;;;;;31.09;10.59;100294.44;5095586;28;20051;-63
2022/05/07 08:44:56;;;;;;;6.53;4.30;;;;;;;31.69;10.48;100292.72;5095917;28;20039;-64
2022/05/07 08:47:23;;;;;;;7.50;4.45;;;;;;;31.74;10.42;100292.88;5098013;28;20059;-61
2022/05/07 08:49:48;;;;;;;5.18;4.60;;;;;;;31.72;10.73;100285.88;5095692;28;20039;-61
2022/05/07 08:52:12;;;;;;;7.80;4.60;;;;;;;31.02;10.31;100286.22;5081087;28;20054;-61
2022/05/07 08:54:37;;;;;;;5.43;4.63;;;;;;;30.62;10.89;100284.91;5099082;28;20039;-62
2022/05/07 08:57:02;;;;;;;5.63;4.32;;;;;;;30.63;11.05;100281.91;5099849;28;20038;-64
2022/05/07 08:59:28;;;;;;;6.05;4.40;;;;;;;30.59;11.00;100290.84;5080022;28;20043;-62
2022/05/07 09:01:52;;;;;;;6.35;4.15;;;;;;;30.24;11.16;100271.22;5078160;28;20035;-63
2022/05/07 09:04:17;;;;;;;10.57;4.82;;;;;;;30.82;11.29;100281.97;5097186;28;20049;-63
2022/05/07 09:06:42;;;;;;;6.43;4.28;;;;;;;31.30;11.17;100282.13;5101602;28;20129;-63
2022/05/07 09:09:07;;;;;;;6.47;4.45;;;;;;;31.25;10.80;100293.88;5066550;28;20055;-63
2022/05/07 09:11:42;;;;;;;5.65;4.20;;;;;;;30.36;11.25;100285.94;5103269;28;20070;-63
2022/05/07 09:14:06;;;;;;;6.03;4.47;;;;;;;28.76;12.11;100270.22;5104746;28;20035;-61
2022/05/07 09:16:46;;;;;;;6.45;4.47;;;;;;;27.89;12.50;100275.75;5087888;28;20043;-62
2022/05/07 09:19:24;;;;;;;6.07;4.10;;;;;;;28.19;12.34;100262.59;5088121;28;20060;-62
2022/05/07 09:21:49;;;;;;;4.95;4.15;;;;;;;29.08;12.22;100254.78;5098955;28;20046;-61
2022/05/07 09:24:15;;;;;;;7.78;3.72;;;;;;;30.07;11.62;100259.88;5082461;28;20039;-63
2022/05/07 09:26:43;;;;;;;5.43;4.20;;;;;;;29.47;11.67;100264.81;5099561;27;20046;-62
2022/05/07 09:29:10;;;;;;;6.53;4.85;;;;;;;28.97;12.13;100251.84;5082901;27;20115;-62
2022/05/07 09:31:36;;;;;;;8.65;4.43;;;;;;;29.10;12.34;100252.66;5085289;27;20519;-62
2022/05/07 09:36:55;;;;;;;4.95;3.97;;;;;;;28.37;12.25;100243.63;5099268;27;20053;-62
2022/05/07 09:39:19;;;;;;;4.93;3.83;;;;;;;27.68;13.26;100241.13;5046511;27;20024;-63
2022/05/07 09:41:44;;;;;;;5.65;4.28;;;;;;;28.69;12.93;100244.66;5098716;27;20047;-63
2022/05/07 09:44:10;;;;;;;5.43;3.97;;;;;;;29.74;12.18;100238.06;5098750;27;20050;-64
2022/05/07 09:46:35;;;;;;;7.55;3.95;;;;;;;30.43;11.60;100242.69;5098524;27;20462;-62
2022/05/07 09:49:03;;;;;;;15.07;4.55;;;;;;;30.88;11.57;100250.78;5062981;27;20031;-62
2022/05/07 09:51:29;;;;;;;6.65;4.22;;;;;;;31.20;10.99;100244.09;5098103;27;20043;-62
2022/05/07 09:59:21;;;;;;;6.22;4.20;;;;;;;30.18;11.19;100244.56;5079538;27;20035;-64
2022/05/07 10:02:05;;;;;;;7.25;4.60;;;;;;;29.80;11.61;100237.16;5079936;27;20047;-65
2022/05/07 10:04:53;;;;;;;7.53;4.70;;;;;;;28.26;12.70;100241.50;5079690;27;20042;-64
2022/05/07 10:07:24;;;;;;;6.35;4.18;;;;;;;28.21;12.83;100244.03;5098413;27;20110;-64
2022/05/07 10:10:14;;;;;;;7.60;4.45;;;;;;;27.58;13.15;100227.00;5083475;27;20053;-64
2022/05/07 10:12:44;;;;;;;10.75;4.28;;;;;;;27.26;13.46;100234.00;5069540;27;20405;-65
2022/05/07 10:15:12;;;;;;;6.50;3.97;;;;;;;26.64;13.44;100239.47;5104105;27;20039;-65
2022/05/07 10:17:38;;;;;;;5.63;4.13;;;;;;;25.61;14.50;100212.63;5104024;27;20042;-65
2022/05/07 10:20:08;;;;;;;6.78;3.80;;;;;;;25.42;14.42;100224.09;5067687;27;20034;-64
2022/05/07 10:22:33;;;;;;;4.95;3.58;;;;;;;24.79;14.99;100212.75;5085079;27;20098;-65
2022/05/07 10:25:02;;;;;;;6.18;4.35;;;;;;;23.61;16.42;100211.53;5102024;27;20082;-65
2022/05/07 10:27:36;;;;;;;4.72;3.70;;;;;;;23.38;16.54;100219.63;5083263;27;20050;-64
2022/05/07 10:30:08;;;;;;;8.68;3.97;;;;;;;23.68;16.28;100217.97;5079663;27;20035;-65
2022/05/07 10:32:59;;;;;;;9.00;4.13;;;;;;;23.89;16.02;100200.97;5045789;27;20058;-65
2022/05/07 10:35:43;;;;;;;5.25;3.50;;;;;;;24.42;16.22;100208.19;5097687;27;20095;-65
2022/05/07 10:38:13;;;;;;;7.50;3.50;;;;;;;24.62;15.68;100205.75;5098424;27;20042;-64
2022/05/07 10:40:58;;;;;;;6.22;4.15;;;;;;;24.83;15.71;100199.59;5096912;27;20062;-65
2022/05/07 10:43:29;;;;;;;8.95;3.78;;;;;;;24.77;15.81;100203.91;5079360;27;20045;-65
2022/05/07 10:45:59;;;;;;;5.70;3.90;;;;;;;24.48;15.67;100203.88;5079034;27;20051;-65
2022/05/07 10:48:24;;;;;;;6.95;3.78;;;;;;;23.80;15.93;100180.28;5096966;27;20077;-64
2022/05/07 10:50:53;;;;;;;7.03;3.85;;;;;;;23.39;16.34;100187.81;5078387;27;20071;-64
2022/05/07 10:53:18;;;;;;;5.90;4.00;;;;;;;22.60;17.47;100181.47;5061454;27;20447;-64
2022/05/07 10:55:43;;;;;;;5.38;3.70;;;;;;;22.39;17.25;100183.91;5061385;27;20039;-64
2022/05/07 10:58:07;;;;;;;5.95;3.80;;;;;;;22.35;17.37;100182.53;5078665;27;20050;-64
2022/05/07 11:00:34;;;;;;;5.90;3.90;;;;;;;22.67;17.29;100189.81;5078318;27;20069;-64
2022/05/07 11:02:59;;;;;;;9.50;4.40;;;;;;;22.59;17.20;100179.78;5061494;27;20051;-62
2022/05/07 11:05:32;;;;;;;13.23;4.20;;;;;;;22.70;17.36;100176.69;5078664;27;20050;-63
2022/05/07 11:08:02;;;;;;;6.45;3.90;;;;;;;22.80;17.53;100166.50;5094063;27;20103;-63
2022/05/07 11:10:27;;;;;;;5.22;3.38;;;;;;;23.00;17.03;100166.94;5096725;27;20397;-64
2022/05/07 11:12:52;;;;;;;6.43;4.25;;;;;;;22.84;17.05;100174.31;5061648;27;20366;-64
2022/05/07 11:15:24;;;;;;;7.93;4.78;;;;;;;22.68;17.76;100165.16;5097300;27;20046;-63
2022/05/07 11:17:51;;;;;;;11.13;3.45;;;;;;;22.74;18.03;100158.16;5098701;27;20095;-64
2022/05/07 11:20:32;;;;;;;5.55;3.88;;;;;;;22.80;17.51;100163.78;5099901;27;20115;-63
2022/05/07 11:23:00;;;;;;;3.63;3.30;;;;;;;22.61;17.57;100156.00;5083508;27;20079;-62
2022/05/07 11:25:26;;;;;;;6.53;3.72;;;;;;;22.35;17.96;100150.78;5098997;27;20050;-63
2022/05/07 11:27:53;;;;;;;4.20;3.47;;;;;;;22.24;17.66;100144.88;5097586;27;20840;-63
2022/05/07 11:30:18;;;;;;;8.05;4.13;;;;;;;22.22;17.57;100144.22;5079883;27;20050;-62
2022/05/07 11:32:43;;;;;;;8.88;3.42;;;;;;;21.94;18.05;100144.53;5080577;27;20039;-62
2022/05/07 11:35:09;;;;;;;4.25;3.40;;;;;;;22.02;17.83;100151.84;5047443;27;20036;-63
2022/05/07 11:37:39;;;;;;;7.25;4.00;;;;;;;21.28;19.00;100136.50;5083801;27;20568;-62
2022/05/07 11:40:05;;;;;;;6.68;3.38;;;;;;;20.94;19.33;100125.72;5068379;27;20037;-61
2022/05/07 11:42:44;;;;;;;5.00;3.55;;;;;;;20.93;19.26;100129.44;5102342;27;20068;-62
2022/05/07 11:45:33;;;;;;;6.57;3.45;;;;;;;20.96;19.50;100120.97;5105831;27;20102;-63
2022/05/07 11:48:14;;;;;;;3.90;3.35;;;;;;;21.23;18.83;100131.56;5085987;27;20035;-63
2022/05/07 11:50:57;;;;;;;5.57;3.50;;;;;;;21.14;18.93;100108.13;5107294;27;20043;-63
2022/05/07 11:53:26;;;;;;;5.65;3.88;;;;;;;20.64;19.84;100124.41;5067423;27;20070;-64